Time,TemperatureF,DewpointF,PressureIn,WindDirection,WindDirectionDegrees,WindSpeedMPH,WindSpeedGustMPH,Humidity,HourlyPrecipIn,Conditions,Clouds,dailyrainin,SolarRadiationWatts/m^2,SoftwareType,DateUTC
2013-02-27 00:00:00,45.0,43.7,29.50,North,360,3.0,3.0,95,0.02,,OVC,0.00,0.00,VWS V14.00,2013-02-27 05:00:00,
2013-02-27 00:01:00,45.0,43.7,29.50,NNE,14,2.0,4.0,95,0.02,,OVC,0.00,0.00,VWS V14.00,2013-02-27 05:01:00,
2013-02-27 00:06:00,44.8,43.5,29.50,North,5,2.0,5.0,95,0.02,,OVC,0.00,0.00,VWS V14.00,2013-02-27 05:06:00,
2013-02-27 00:11:00,44.7,43.4,29.50,NNE,15,2.0,6.0,95,0.03,,OVC,0.01,0.00,VWS V14.00,2013-02-27 05:11:00,
2013-02-27 00:15:00,44.6,43.3,29.50,North,355,2.0,6.0,95,0.03,,OVC,0.01,0.00,VWS V14.00,2013-02-27 05:15:00,
2013-02-27 00:16:00,44.6,43.3,29.50,NE,51,2.0,5.0,95,0.02,,OVC,0.01,0.00,VWS V14.00,2013-02-27 05:16:00,
2013-02-27 00:21:00,44.5,43.2,29.50,NNE,19,0.0,6.0,95,0.02,,OVC,0.01,0.00,VWS V14.00,2013-02-27 05:21:00,
2013-02-27 00:26:00,44.5,43.2,29.50,NNE,19,2.0,6.0,95,0.02,,OVC,0.01,0.00,VWS V14.00,2013-02-27 05:26:00,
2013-02-27 00:30:00,44.5,43.2,29.50,NNE,30,3.0,6.0,95,0.03,,OVC,0.02,0.00,VWS V14.00,2013-02-27 05:30:00,
2013-02-27 00:31:00,44.5,43.2,29.49,NNE,30,3.0,5.0,95,0.03,,OVC,0.02,0.00,VWS V14.00,2013-02-27 05:31:00,
2013-02-27 00:36:00,44.5,43.2,29.49,NE,55,0.0,5.0,95,0.03,,OVC,0.02,0.00,VWS V14.00,2013-02-27 05:36:00,
2013-02-27 00:41:00,44.4,43.1,29.49,NE,37,0.0,8.0,95,0.03,,OVC,0.02,0.00,VWS V14.00,2013-02-27 05:41:00,
2013-02-27 00:45:00,44.4,43.1,29.49,NE,34,2.0,8.0,95,0.03,,OVC,0.02,0.00,VWS V14.00,2013-02-27 05:45:00,
2013-02-27 00:46:00,44.3,43.0,29.49,North,10,1.0,5.0,95,0.02,,OVC,0.02,0.00,VWS V14.00,2013-02-27 05:46:00,
2013-02-27 00:51:00,44.2,42.9,29.48,NNW,338,6.0,8.0,95,0.02,,OVC,0.02,0.00,VWS V14.00,2013-02-27 05:51:00,
2013-02-27 00:56:00,44.0,42.7,29.48,NE,39,4.0,8.0,95,0.02,,OVC,0.02,0.00,VWS V14.00,2013-02-27 05:56:00,
2013-02-27 01:00:00,44.0,42.7,29.48,NNE,29,3.0,8.0,95,0.02,,OVC,0.02,0.00,VWS V14.00,2013-02-27 06:00:00,
2013-02-27 01:01:00,43.9,42.6,29.48,North,5,5.0,7.0,95,0.02,,OVC,0.02,0.00,VWS V14.00,2013-02-27 06:01:00,
2013-02-27 01:06:00,43.8,42.5,29.48,NE,37,0.0,8.0,95,0.02,,OVC,0.02,0.00,VWS V14.00,2013-02-27 06:06:00,
2013-02-27 01:11:00,43.8,42.5,29.48,NE,34,4.0,8.0,95,0.02,,OVC,0.02,0.00,VWS V14.00,2013-02-27 06:11:00,
2013-02-27 01:15:00,43.8,42.5,29.47,NE,41,4.0,8.0,95,0.02,,OVC,0.02,0.00,VWS V14.00,2013-02-27 06:15:00,
2013-02-27 01:16:00,43.8,42.5,29.47,NE,42,2.0,6.0,95,0.02,,OVC,0.03,0.00,VWS V14.00,2013-02-27 06:16:00,
2013-02-27 01:21:00,43.8,42.5,29.46,NE,46,3.0,7.0,95,0.02,,OVC,0.03,0.00,VWS V14.00,2013-02-27 06:21:00,
2013-02-27 01:26:00,43.8,42.5,29.46,NNE,30,3.0,7.0,95,0.02,,OVC,0.03,0.00,VWS V14.00,2013-02-27 06:26:00,
2013-02-27 01:30:00,43.8,42.5,29.46,NNE,19,3.0,7.0,95,0.02,,OVC,0.03,0.00,VWS V14.00,2013-02-27 06:30:00,
2013-02-27 01:32:00,43.8,42.5,29.46,NNE,26,1.0,5.0,95,0.01,,OVC,0.03,0.00,VWS V14.00,2013-02-27 06:32:00,
2013-02-27 01:37:00,43.8,42.5,29.46,NE,53,1.0,5.0,95,0.01,,OVC,0.03,0.00,VWS V14.00,2013-02-27 06:37:00,
2013-02-27 01:42:00,43.9,42.6,29.45,NE,44,0.0,8.0,95,0.01,,OVC,0.03,0.00,VWS V14.00,2013-02-27 06:42:00,
2013-02-27 01:45:00,43.9,42.6,29.45,NE,44,2.0,8.0,95,0.01,,OVC,0.03,0.00,VWS V14.00,2013-02-27 06:45:00,
2013-02-27 01:47:00,43.9,42.6,29.44,NE,44,0.0,2.0,95,0.01,,OVC,0.03,0.00,VWS V14.00,2013-02-27 06:47:00,
2013-02-27 01:52:00,43.9,42.8,29.44,East,98,2.0,4.0,96,0.01,,OVC,0.03,0.00,VWS V14.00,2013-02-27 06:52:00,
2013-02-27 01:57:00,44.0,42.9,29.43,NNW,342,1.0,4.0,96,0.01,,OVC,0.03,0.00,VWS V14.00,2013-02-27 06:57:00,
2013-02-27 02:00:00,44.1,43.0,29.43,NNE,17,0.0,4.0,96,0.01,,OVC,0.03,0.00,VWS V14.00,2013-02-27 07:00:00,
2013-02-27 02:02:00,44.1,43.0,29.43,North,360,3.0,5.0,96,0.01,,OVC,0.03,0.00,VWS V14.00,2013-02-27 07:02:00,
2013-02-27 02:07:00,44.3,43.2,29.42,ENE,67,1.0,6.0,96,0.01,,OVC,0.03,0.00,VWS V14.00,2013-02-27 07:07:00,
2013-02-27 02:12:00,44.3,43.2,29.42,NE,39,1.0,6.0,96,0.01,,OVC,0.03,0.00,VWS V14.00,2013-02-27 07:12:00,
2013-02-27 02:15:00,44.3,43.2,29.42,NNE,16,8.0,8.0,96,0.01,,OVC,0.03,0.00,VWS V14.00,2013-02-27 07:15:00,
2013-02-27 02:17:00,44.4,43.3,29.42,NE,54,1.0,8.0,96,0.01,,OVC,0.03,0.00,VWS V14.00,2013-02-27 07:17:00,
2013-02-27 02:22:00,44.5,43.4,29.42,NE,54,0.0,0.0,96,0.01,,OVC,0.03,0.00,VWS V14.00,2013-02-27 07:22:00,
2013-02-27 02:27:00,44.5,43.4,29.42,North,5,3.0,4.0,96,0.01,,OVC,0.03,0.00,VWS V14.00,2013-02-27 07:27:00,
2013-02-27 02:32:00,44.5,43.4,29.41,NE,44,3.0,4.0,96,0.00,,OVC,0.03,0.00,VWS V14.00,2013-02-27 07:32:00,
2013-02-27 02:37:00,44.5,43.4,29.41,North,5,1.0,6.0,96,0.00,,OVC,0.03,0.00,VWS V14.00,2013-02-27 07:37:00,
2013-02-27 02:43:00,44.5,43.4,29.41,NNE,15,2.0,6.0,96,0.00,,OVC,0.03,0.00,VWS V14.00,2013-02-27 07:43:00,
2013-02-27 02:48:00,44.4,43.3,29.41,NNE,32,0.0,5.0,96,0.00,,OVC,0.03,0.00,VWS V14.00,2013-02-27 07:48:00,
2013-02-27 02:53:00,44.3,43.2,29.40,NE,39,1.0,5.0,96,0.00,,OVC,0.03,0.00,VWS V14.00,2013-02-27 07:53:00,
2013-02-27 02:58:00,44.2,43.1,29.40,NNE,17,3.0,5.0,96,0.00,,OVC,0.03,0.00,VWS V14.00,2013-02-27 07:58:00,
2013-02-27 03:03:00,44.2,43.1,29.40,NNE,19,4.0,4.0,96,0.00,,OVC,0.03,0.00,VWS V14.00,2013-02-27 08:03:00,
2013-02-27 03:08:00,44.1,43.0,29.40,NNE,14,3.0,5.0,96,0.00,,OVC,0.03,0.00,VWS V14.00,2013-02-27 08:08:00,
2013-02-27 03:13:00,44.1,43.0,29.39,ENE,60,1.0,1.0,96,0.00,,OVC,0.03,0.00,VWS V14.00,2013-02-27 08:13:00,
2013-02-27 03:18:00,44.1,43.0,29.39,NE,51,0.0,3.0,96,0.00,,OVC,0.03,0.00,VWS V14.00,2013-02-27 08:18:00,
2013-02-27 03:23:00,44.1,43.0,29.39,NE,35,0.0,5.0,96,0.00,,OVC,0.03,0.00,VWS V14.00,2013-02-27 08:23:00,
2013-02-27 03:28:00,44.1,43.0,29.39,NE,54,1.0,1.0,96,0.00,,OVC,0.03,0.00,VWS V14.00,2013-02-27 08:28:00,
2013-02-27 03:33:00,44.1,43.0,29.39,NE,41,0.0,3.0,96,0.00,,OVC,0.03,0.00,VWS V14.00,2013-02-27 08:33:00,
2013-02-27 03:38:00,44.1,43.0,29.38,North,355,1.0,4.0,96,0.00,,OVC,0.03,0.00,VWS V14.00,2013-02-27 08:38:00,
2013-02-27 03:43:00,44.1,43.0,29.38,NE,48,0.0,0.0,96,0.00,,OVC,0.03,0.00,VWS V14.00,2013-02-27 08:43:00,
2013-02-27 03:49:00,44.1,43.0,29.38,NE,47,0.0,2.0,96,0.00,,OVC,0.03,0.00,VWS V14.00,2013-02-27 08:49:00,
2013-02-27 03:54:00,44.1,43.0,29.39,NE,47,0.0,2.0,96,0.00,,OVC,0.03,0.00,VWS V14.00,2013-02-27 08:54:00,
2013-02-27 03:59:00,44.1,43.0,29.39,NNE,15,1.0,5.0,96,0.00,,OVC,0.03,0.00,VWS V14.00,2013-02-27 08:59:00,
2013-02-27 04:04:00,44.1,43.0,29.39,NNE,15,0.0,5.0,96,0.00,,OVC,0.03,0.00,VWS V14.00,2013-02-27 09:04:00,
2013-02-27 04:09:00,44.1,43.0,29.39,NNE,15,2.0,5.0,96,0.00,,OVC,0.03,0.00,VWS V14.00,2013-02-27 09:09:00,
2013-02-27 04:14:00,44.1,43.0,29.39,NNE,15,0.0,0.0,96,0.00,,OVC,0.03,0.00,VWS V14.00,2013-02-27 09:14:00,
2013-02-27 04:19:00,44.1,43.0,29.40,NNE,15,0.0,1.0,96,0.00,,OVC,0.03,0.00,VWS V14.00,2013-02-27 09:19:00,
2013-02-27 04:24:00,44.0,42.9,29.40,NNE,15,2.0,3.0,96,0.00,,OVC,0.03,0.00,VWS V14.00,2013-02-27 09:24:00,
2013-02-27 04:29:00,44.0,42.9,29.39,NNW,337,0.0,0.0,96,0.00,,OVC,0.03,0.00,VWS V14.00,2013-02-27 09:29:00,
2013-02-27 04:34:00,43.9,42.8,29.40,NNW,337,0.0,2.0,96,0.00,,OVC,0.03,0.00,VWS V14.00,2013-02-27 09:34:00,
2013-02-27 04:39:00,43.9,42.8,29.39,NNW,329,0.0,4.0,96,0.00,,OVC,0.03,0.00,VWS V14.00,2013-02-27 09:39:00,
2013-02-27 04:44:00,43.8,42.7,29.39,NNW,329,0.0,0.0,96,0.00,,OVC,0.03,0.00,VWS V14.00,2013-02-27 09:44:00,
2013-02-27 04:49:00,43.8,42.7,29.40,NNW,329,0.0,0.0,96,0.00,,OVC,0.03,0.00,VWS V14.00,2013-02-27 09:49:00,
2013-02-27 04:54:00,43.8,42.7,29.40,NNW,329,0.0,1.0,96,0.00,,OVC,0.03,0.00,VWS V14.00,2013-02-27 09:54:00,
2013-02-27 04:59:00,43.9,42.8,29.39,NNW,329,0.0,0.0,96,0.00,,OVC,0.03,0.00,VWS V14.00,2013-02-27 09:59:00,
2013-02-27 05:04:00,44.0,42.9,29.39,NNW,329,0.0,0.0,96,0.00,,OVC,0.03,0.00,VWS V14.00,2013-02-27 10:04:00,
2013-02-27 05:10:00,44.0,42.9,29.39,NNW,329,0.0,0.0,96,0.00,,OVC,0.03,0.00,VWS V14.00,2013-02-27 10:10:00,
2013-02-27 05:15:00,44.0,42.9,29.39,NNW,329,0.0,0.0,96,0.00,,OVC,0.03,0.00,VWS V14.00,2013-02-27 10:15:00,
2013-02-27 05:20:00,44.1,43.0,29.39,NNW,329,0.0,0.0,96,0.00,,OVC,0.03,0.00,VWS V14.00,2013-02-27 10:20:00,
2013-02-27 05:25:00,44.2,43.1,29.39,NNW,329,0.0,0.0,96,0.00,,OVC,0.03,0.00,VWS V14.00,2013-02-27 10:25:00,
2013-02-27 05:30:00,44.2,43.1,29.39,NNW,329,2.0,2.0,96,0.00,,OVC,0.03,0.00,VWS V14.00,2013-02-27 10:30:00,
2013-02-27 05:35:00,44.3,43.2,29.39,NNW,329,0.0,2.0,96,0.00,,OVC,0.03,0.00,VWS V14.00,2013-02-27 10:35:00,
2013-02-27 05:40:00,44.3,43.2,29.39,NNW,329,0.0,2.0,96,0.00,,OVC,0.03,0.00,VWS V14.00,2013-02-27 10:40:00,
2013-02-27 05:45:00,44.3,43.2,29.39,NNW,329,0.0,0.0,96,0.00,,OVC,0.03,0.00,VWS V14.00,2013-02-27 10:45:00,
2013-02-27 05:50:00,44.3,43.2,29.39,NNW,329,1.0,1.0,96,0.00,,OVC,0.03,0.00,VWS V14.00,2013-02-27 10:50:00,
2013-02-27 05:55:00,44.4,43.3,29.39,NNW,329,0.0,1.0,96,0.00,,OVC,0.03,0.00,VWS V14.00,2013-02-27 10:55:00,
2013-02-27 06:00:00,44.4,43.3,29.40,NW,320,0.0,2.0,96,0.00,,OVC,0.03,0.00,VWS V14.00,2013-02-27 11:00:00,
2013-02-27 06:05:00,44.4,43.3,29.40,NW,317,0.0,2.0,96,0.00,,OVC,0.03,0.00,VWS V14.00,2013-02-27 11:05:00,
2013-02-27 06:10:00,44.4,43.3,29.40,NW,317,0.0,2.0,96,0.00,,OVC,0.03,0.00,VWS V14.00,2013-02-27 11:10:00,
2013-02-27 06:15:00,44.4,43.3,29.40,NW,317,0.0,0.0,96,0.00,,OVC,0.03,0.00,VWS V14.00,2013-02-27 11:15:00,
2013-02-27 06:20:00,44.4,43.3,29.40,WNW,298,0.0,2.0,96,0.00,,OVC,0.03,0.00,VWS V14.00,2013-02-27 11:20:00,
2013-02-27 06:25:00,44.4,43.3,29.40,West,260,0.0,4.0,96,0.00,,OVC,0.03,0.00,VWS V14.00,2013-02-27 11:25:00,
2013-02-27 06:30:00,44.4,43.3,29.39,West,260,0.0,1.0,96,0.00,,OVC,0.03,0.00,VWS V14.00,2013-02-27 11:30:00,
2013-02-27 06:36:00,44.5,43.4,29.39,West,260,0.0,1.0,96,0.00,,OVC,0.03,0.00,VWS V14.00,2013-02-27 11:36:00,
2013-02-27 06:41:00,44.5,43.4,29.40,West,261,1.0,1.0,96,0.01,,OVC,0.04,0.00,VWS V14.00,2013-02-27 11:41:00,
2013-02-27 06:46:00,44.5,43.4,29.40,West,261,0.0,1.0,96,0.01,,OVC,0.04,0.00,VWS V14.00,2013-02-27 11:46:00,
2013-02-27 06:51:00,44.6,43.5,29.40,West,261,0.0,2.0,96,0.01,,OVC,0.04,5.00,VWS V14.00,2013-02-27 11:51:00,
2013-02-27 06:56:00,44.6,43.5,29.40,WSW,243,3.0,4.0,96,0.01,,OVC,0.04,9.00,VWS V14.00,2013-02-27 11:56:00,
2013-02-27 07:01:00,44.6,43.5,29.41,WNW,287,0.0,4.0,96,0.01,,OVC,0.04,11.00,VWS V14.00,2013-02-27 12:01:00,
2013-02-27 07:06:00,44.5,43.4,29.41,WSW,257,5.0,5.0,96,0.01,,OVC,0.04,5.00,VWS V14.00,2013-02-27 12:06:00,
2013-02-27 07:11:00,44.4,43.3,29.42,West,259,4.0,7.0,96,0.01,,OVC,0.04,5.00,VWS V14.00,2013-02-27 12:11:00,
2013-02-27 07:16:00,44.2,43.1,29.43,West,269,3.0,6.0,96,0.01,,OVC,0.04,12.00,VWS V14.00,2013-02-27 12:16:00,
2013-02-27 07:21:00,43.7,42.6,29.43,West,260,4.0,8.0,96,0.01,,OVC,0.04,12.00,VWS V14.00,2013-02-27 12:21:00,
2013-02-27 07:26:00,43.3,42.2,29.44,WNW,300,4.0,8.0,96,0.01,,OVC,0.04,7.00,VWS V14.00,2013-02-27 12:26:00,
2013-02-27 07:31:00,42.9,41.8,29.44,WSW,240,4.0,4.0,96,0.01,,OVC,0.04,12.00,VWS V14.00,2013-02-27 12:31:00,
2013-02-27 07:36:00,42.4,41.1,29.44,West,277,2.0,11.0,95,0.01,,OVC,0.04,23.00,VWS V14.00,2013-02-27 12:36:00,
2013-02-27 07:41:00,42.1,40.8,29.45,West,260,0.0,11.0,95,0.01,,OVC,0.04,30.00,VWS V14.00,2013-02-27 12:41:00,
2013-02-27 07:47:00,42.0,40.7,29.45,West,273,4.0,6.0,95,0.00,,OVC,0.04,44.00,VWS V14.00,2013-02-27 12:47:00,
2013-02-27 07:52:00,41.8,40.5,29.46,West,271,6.0,11.0,95,0.00,,OVC,0.04,44.00,VWS V14.00,2013-02-27 12:52:00,
2013-02-27 07:57:00,41.7,40.4,29.46,West,273,1.0,11.0,95,0.00,,OVC,0.04,46.00,VWS V14.00,2013-02-27 12:57:00,
2013-02-27 08:02:00,41.7,40.7,29.47,WSW,257,4.0,6.0,96,0.00,,OVC,0.04,62.00,VWS V14.00,2013-02-27 13:02:00,
2013-02-27 08:07:00,41.7,40.7,29.47,SW,236,0.0,7.0,96,0.00,,OVC,0.04,83.00,VWS V14.00,2013-02-27 13:07:00,
2013-02-27 08:12:00,41.8,40.8,29.47,WSW,250,2.0,7.0,96,0.00,,OVC,0.04,84.00,VWS V14.00,2013-02-27 13:12:00,
2013-02-27 08:17:00,41.8,40.8,29.48,WSW,254,1.0,5.0,96,0.00,,OVC,0.04,125.00,VWS V14.00,2013-02-27 13:17:00,
2013-02-27 08:22:00,41.9,40.8,29.48,SW,221,3.0,5.0,96,0.00,,OVC,0.04,160.00,VWS V14.00,2013-02-27 13:22:00,
2013-02-27 08:27:00,42.0,40.7,29.48,WNW,300,2.0,7.0,95,0.00,,OVC,0.04,151.00,VWS V14.00,2013-02-27 13:27:00,
2013-02-27 08:32:00,42.1,40.8,29.48,WNW,285,5.0,7.0,95,0.00,,OVC,0.04,132.00,VWS V14.00,2013-02-27 13:32:00,
2013-02-27 08:37:00,42.3,41.0,29.48,West,269,2.0,7.0,95,0.00,,OVC,0.04,95.00,VWS V14.00,2013-02-27 13:37:00,
2013-02-27 08:42:00,42.5,41.2,29.48,WSW,251,4.0,7.0,95,0.00,,OVC,0.04,211.00,VWS V14.00,2013-02-27 13:42:00,
2013-02-27 08:47:00,42.8,41.5,29.48,WNW,283,2.0,6.0,95,0.00,,OVC,0.04,186.00,VWS V14.00,2013-02-27 13:47:00,
2013-02-27 08:52:00,43.1,41.8,29.49,WNW,287,6.0,7.0,95,0.00,,OVC,0.04,169.00,VWS V14.00,2013-02-27 13:52:00,
2013-02-27 08:57:00,43.1,41.2,29.49,West,264,0.0,8.0,93,0.00,,OVC,0.04,137.00,VWS V14.00,2013-02-27 13:57:00,
2013-02-27 09:02:00,43.3,41.7,29.49,West,270,0.0,5.0,94,0.00,,OVC,0.04,160.00,VWS V14.00,2013-02-27 14:02:00,
2013-02-27 09:08:00,43.4,41.5,29.49,West,267,1.0,5.0,93,0.00,,OVC,0.04,218.00,VWS V14.00,2013-02-27 14:08:00,
2013-02-27 09:13:00,43.5,41.6,29.49,West,275,1.0,7.0,93,0.00,,OVC,0.04,195.00,VWS V14.00,2013-02-27 14:13:00,
2013-02-27 09:18:00,43.8,41.6,29.49,West,267,1.0,7.0,92,0.00,,OVC,0.04,204.00,VWS V14.00,2013-02-27 14:18:00,
2013-02-27 09:23:00,44.2,42.0,29.49,West,266,0.0,7.0,92,0.00,,OVC,0.04,155.00,VWS V14.00,2013-02-27 14:23:00,
2013-02-27 09:28:00,44.7,42.5,29.49,West,279,4.0,4.0,92,0.00,,OVC,0.04,580.00,VWS V14.00,2013-02-27 14:28:00,
2013-02-27 09:33:00,45.2,42.7,29.50,SW,215,3.0,6.0,91,0.00,,OVC,0.04,255.00,VWS V14.00,2013-02-27 14:33:00,
2013-02-27 09:38:00,45.5,42.5,29.50,WSW,255,6.0,8.0,89,0.00,,OVC,0.04,571.00,VWS V14.00,2013-02-27 14:38:00,
2013-02-27 09:43:00,45.6,42.0,29.50,WSW,257,10.0,10.0,87,0.00,,OVC,0.04,501.00,VWS V14.00,2013-02-27 14:43:00,
2013-02-27 09:48:00,45.7,41.8,29.50,West,271,4.0,14.0,86,0.00,,OVC,0.04,559.00,VWS V14.00,2013-02-27 14:48:00,
2013-02-27 09:53:00,45.7,41.5,29.50,WSW,244,3.0,14.0,85,0.00,,OVC,0.04,564.00,VWS V14.00,2013-02-27 14:53:00,
2013-02-27 09:58:00,46.1,42.2,29.50,SW,224,4.0,4.0,86,0.00,,OVC,0.04,584.00,VWS V14.00,2013-02-27 14:58:00,
2013-02-27 10:03:00,46.5,41.9,29.50,WSW,247,0.0,10.0,84,0.00,,OVC,0.04,619.00,VWS V14.00,2013-02-27 15:03:00,
2013-02-27 10:08:00,46.9,42.6,29.50,WSW,245,2.0,10.0,85,0.00,,OVC,0.04,603.00,VWS V14.00,2013-02-27 15:08:00,
2013-02-27 10:14:00,47.2,42.3,29.50,West,260,7.0,8.0,83,0.00,,OVC,0.04,617.00,VWS V14.00,2013-02-27 15:14:00,
2013-02-27 10:19:00,47.4,42.2,29.50,West,273,1.0,8.0,82,0.00,,OVC,0.04,624.00,VWS V14.00,2013-02-27 15:19:00,
2013-02-27 10:24:00,47.9,42.0,29.50,WNW,290,4.0,10.0,80,0.00,,OVC,0.04,640.00,VWS V14.00,2013-02-27 15:24:00,
2013-02-27 10:29:00,48.3,42.1,29.50,SSW,193,1.0,2.0,79,0.00,,OVC,0.04,654.00,VWS V14.00,2013-02-27 15:29:00,
2013-02-27 10:34:00,48.6,42.1,29.51,SW,221,1.0,8.0,78,0.00,,OVC,0.04,659.00,VWS V14.00,2013-02-27 15:34:00,
2013-02-27 10:39:00,48.9,42.0,29.51,SSW,201,9.0,11.0,77,0.00,,OVC,0.04,670.00,VWS V14.00,2013-02-27 15:39:00,
2013-02-27 10:44:00,49.0,42.1,29.50,West,261,3.0,6.0,77,0.00,,OVC,0.04,694.00,VWS V14.00,2013-02-27 15:44:00,
2013-02-27 10:49:00,49.1,41.5,29.51,NW,315,7.0,11.0,75,0.00,,OVC,0.04,726.00,VWS V14.00,2013-02-27 15:49:00,
2013-02-27 10:54:00,49.2,42.0,29.51,WSW,254,2.0,11.0,76,0.00,,OVC,0.04,705.00,VWS V14.00,2013-02-27 15:54:00,
2013-02-27 10:59:00,49.6,42.4,29.51,WNW,291,5.0,11.0,76,0.00,,OVC,0.04,714.00,VWS V14.00,2013-02-27 15:59:00,
2013-02-27 11:04:00,49.8,41.9,29.51,SW,232,5.0,11.0,74,0.00,,OVC,0.04,747.00,VWS V14.00,2013-02-27 16:04:00,
2013-02-27 11:09:00,49.9,41.6,29.51,West,259,0.0,11.0,73,0.00,,OVC,0.04,847.00,VWS V14.00,2013-02-27 16:09:00,
2013-02-27 11:14:00,50.1,42.2,29.51,West,261,0.0,3.0,74,0.00,,OVC,0.04,856.00,VWS V14.00,2013-02-27 16:14:00,
2013-02-27 11:19:00,50.4,42.1,29.51,WNW,290,5.0,8.0,73,0.00,,OVC,0.04,803.00,VWS V14.00,2013-02-27 16:19:00,
2013-02-27 11:24:00,50.6,41.9,29.51,WSW,256,2.0,10.0,72,0.00,,OVC,0.04,793.00,VWS V14.00,2013-02-27 16:24:00,
2013-02-27 11:29:00,50.6,41.9,29.51,NW,308,5.0,7.0,72,0.00,,OVC,0.04,837.00,VWS V14.00,2013-02-27 16:29:00,
2013-02-27 11:34:00,50.5,41.5,29.51,WSW,251,3.0,10.0,71,0.00,,OVC,0.04,786.00,VWS V14.00,2013-02-27 16:34:00,
2013-02-27 11:39:00,50.4,41.4,29.51,WNW,286,5.0,13.0,71,0.00,,OVC,0.04,780.00,VWS V14.00,2013-02-27 16:39:00,
2013-02-27 11:44:00,50.5,41.1,29.51,West,279,4.0,9.0,70,0.00,,OVC,0.04,763.00,VWS V14.00,2013-02-27 16:44:00,
2013-02-27 11:49:00,50.9,41.5,29.51,WNW,288,7.0,10.0,70,0.00,,OVC,0.04,786.00,VWS V14.00,2013-02-27 16:49:00,
2013-02-27 11:55:00,51.4,40.8,29.51,NW,319,2.0,12.0,67,0.00,,OVC,0.04,756.00,VWS V14.00,2013-02-27 16:55:00,
2013-02-27 12:00:00,51.7,41.5,29.51,WSW,249,10.0,12.0,68,0.00,,OVC,0.04,782.00,VWS V14.00,2013-02-27 17:00:00,
2013-02-27 12:05:00,52.0,41.4,29.51,WNW,284,4.0,12.0,67,0.00,,OVC,0.04,773.00,VWS V14.00,2013-02-27 17:05:00,
2013-02-27 12:10:00,52.4,41.0,29.51,WSW,247,2.0,12.0,65,0.00,,OVC,0.04,777.00,VWS V14.00,2013-02-27 17:10:00,
2013-02-27 12:15:00,52.9,41.5,29.50,SSW,195,8.0,11.0,65,0.00,,OVC,0.04,821.00,VWS V14.00,2013-02-27 17:15:00,
2013-02-27 12:20:00,53.3,41.0,29.51,SSW,209,4.0,11.0,63,0.00,,OVC,0.04,439.00,VWS V14.00,2013-02-27 17:20:00,
2013-02-27 12:25:00,53.3,41.5,29.51,NW,321,1.0,15.0,64,0.00,,OVC,0.04,817.00,VWS V14.00,2013-02-27 17:25:00,
2013-02-27 12:30:00,53.0,40.8,29.51,WNW,296,5.0,9.0,63,0.00,,OVC,0.04,842.00,VWS V14.00,2013-02-27 17:30:00,
2013-02-27 12:35:00,53.1,41.3,29.50,NW,317,5.0,9.0,64,0.00,,OVC,0.04,803.00,VWS V14.00,2013-02-27 17:35:00,
2013-02-27 12:40:00,53.3,40.6,29.50,NW,322,8.0,13.0,62,0.00,,OVC,0.04,851.00,VWS V14.00,2013-02-27 17:40:00,
2013-02-27 12:45:00,53.5,41.6,29.50,NNW,344,4.0,6.0,64,0.00,,OVC,0.04,925.00,VWS V14.00,2013-02-27 17:45:00,
2013-02-27 12:50:00,53.9,42.0,29.50,NW,313,2.0,7.0,64,0.00,,OVC,0.04,962.00,VWS V14.00,2013-02-27 17:50:00,
2013-02-27 12:55:00,53.5,41.2,29.50,WNW,292,2.0,9.0,63,0.00,,OVC,0.04,809.00,VWS V14.00,2013-02-27 17:55:00,
2013-02-27 13:00:00,53.5,41.2,29.50,North,355,8.0,8.0,63,0.00,,OVC,0.04,953.00,VWS V14.00,2013-02-27 18:00:00,
2013-02-27 13:05:00,53.6,41.3,29.50,North,350,4.0,10.0,63,0.00,,OVC,0.04,875.00,VWS V14.00,2013-02-27 18:05:00,
2013-02-27 13:10:00,54.2,41.1,29.50,WSW,238,2.0,10.0,61,0.00,,OVC,0.04,868.00,VWS V14.00,2013-02-27 18:10:00,
2013-02-27 13:15:00,54.6,40.6,29.50,WNW,303,6.0,11.0,59,0.00,,OVC,0.04,251.00,VWS V14.00,2013-02-27 18:15:00,
2013-02-27 13:20:00,54.4,40.8,29.50,West,263,1.0,11.0,60,0.00,,OVC,0.04,220.00,VWS V14.00,2013-02-27 18:20:00,
2013-02-27 13:25:00,54.3,40.7,29.50,North,11,1.0,11.0,60,0.00,,OVC,0.04,304.00,VWS V14.00,2013-02-27 18:25:00,
2013-02-27 13:31:00,54.6,40.1,29.50,WSW,254,4.0,8.0,58,0.00,,OVC,0.04,807.00,VWS V14.00,2013-02-27 18:31:00,
2013-02-27 13:36:00,55.3,40.3,29.51,SW,214,5.0,13.0,57,0.00,,OVC,0.04,800.00,VWS V14.00,2013-02-27 18:36:00,
2013-02-27 13:41:00,55.8,40.8,29.51,ENE,77,0.0,13.0,57,0.00,,OVC,0.04,805.00,VWS V14.00,2013-02-27 18:41:00,
2013-02-27 13:46:00,56.6,40.6,29.51,WSW,247,4.0,13.0,55,0.00,,OVC,0.04,868.00,VWS V14.00,2013-02-27 18:46:00,
2013-02-27 13:51:00,56.3,40.4,29.51,WSW,254,1.0,13.0,55,0.00,,OVC,0.04,287.00,VWS V14.00,2013-02-27 18:51:00,
2013-02-27 13:56:00,55.9,40.5,29.51,West,265,3.0,13.0,56,0.00,,OVC,0.04,325.00,VWS V14.00,2013-02-27 18:56:00,
2013-02-27 14:01:00,56.0,41.0,29.50,West,259,3.0,6.0,57,0.00,,OVC,0.04,297.00,VWS V14.00,2013-02-27 19:01:00,
2013-02-27 14:06:00,56.1,41.1,29.50,WSW,256,6.0,9.0,57,0.00,,OVC,0.04,722.00,VWS V14.00,2013-02-27 19:06:00,
2013-02-27 14:11:00,56.0,40.5,29.51,SSW,195,3.0,9.0,56,0.00,,OVC,0.04,113.00,VWS V14.00,2013-02-27 19:11:00,
2013-02-27 14:16:00,55.9,40.5,29.51,SE,130,2.0,5.0,56,0.00,,OVC,0.04,197.00,VWS V14.00,2013-02-27 19:16:00,
2013-02-27 14:21:00,55.9,41.3,29.51,NW,305,4.0,7.0,58,0.00,,OVC,0.04,786.00,VWS V14.00,2013-02-27 19:21:00,
2013-02-27 14:26:00,56.1,41.5,29.51,WNW,299,1.0,7.0,58,0.00,,OVC,0.04,169.00,VWS V14.00,2013-02-27 19:26:00,
2013-02-27 14:31:00,56.0,41.5,29.51,WSW,247,0.0,5.0,58,0.00,,OVC,0.04,141.00,VWS V14.00,2013-02-27 19:31:00,
2013-02-27 14:36:00,55.8,40.8,29.51,WNW,287,0.0,5.0,57,0.00,,OVC,0.04,283.00,VWS V14.00,2013-02-27 19:36:00,
2013-02-27 14:41:00,56.2,41.6,29.50,West,265,2.0,6.0,58,0.00,,OVC,0.04,186.00,VWS V14.00,2013-02-27 19:41:00,
2013-02-27 14:46:00,56.4,41.4,29.51,WNW,297,0.0,6.0,57,0.00,,OVC,0.04,190.00,VWS V14.00,2013-02-27 19:46:00,
2013-02-27 14:51:00,56.3,40.8,29.50,West,267,2.0,6.0,56,0.00,,OVC,0.04,193.00,VWS V14.00,2013-02-27 19:51:00,
2013-02-27 14:57:00,56.2,41.6,29.51,SW,227,0.0,6.0,58,0.00,,OVC,0.04,174.00,VWS V14.00,2013-02-27 19:57:00,
2013-02-27 15:02:00,56.2,41.6,29.51,SSW,203,3.0,3.0,58,0.00,,OVC,0.04,109.00,VWS V14.00,2013-02-27 20:02:00,
2013-02-27 15:07:00,56.0,41.0,29.51,WSW,247,2.0,5.0,57,0.00,,OVC,0.04,137.00,VWS V14.00,2013-02-27 20:07:00,
2013-02-27 15:12:00,55.9,41.3,29.51,WSW,242,1.0,5.0,58,0.00,,OVC,0.04,100.00,VWS V14.00,2013-02-27 20:12:00,
2013-02-27 15:17:00,55.8,41.7,29.51,South,172,0.0,2.0,59,0.00,,OVC,0.04,105.00,VWS V14.00,2013-02-27 20:17:00,
2013-02-27 15:22:00,55.8,41.3,29.51,WSW,254,0.0,3.0,58,0.00,,OVC,0.04,91.00,VWS V14.00,2013-02-27 20:22:00,
2013-02-27 15:27:00,55.7,42.0,29.51,West,267,1.0,3.0,60,0.00,,OVC,0.04,81.00,VWS V14.00,2013-02-27 20:27:00,
2013-02-27 15:32:00,55.7,40.7,29.51,South,171,0.0,4.0,57,0.00,,OVC,0.04,84.00,VWS V14.00,2013-02-27 20:32:00,
2013-02-27 15:37:00,55.5,40.1,29.51,SSW,195,1.0,5.0,56,0.00,,OVC,0.04,74.00,VWS V14.00,2013-02-27 20:37:00,
2013-02-27 15:42:00,55.3,39.9,29.50,WSW,238,0.0,6.0,56,0.00,,OVC,0.04,63.00,VWS V14.00,2013-02-27 20:42:00,
2013-02-27 15:47:00,55.3,40.3,29.50,West,259,0.0,3.0,57,0.00,,OVC,0.04,56.00,VWS V14.00,2013-02-27 20:47:00,
2013-02-27 15:52:00,55.2,40.2,29.50,WNW,283,5.0,5.0,57,0.00,,OVC,0.04,65.00,VWS V14.00,2013-02-27 20:52:00,
2013-02-27 15:57:00,55.1,40.2,29.51,WSW,250,0.0,5.0,57,0.00,,OVC,0.04,47.00,VWS V14.00,2013-02-27 20:57:00,
2013-02-27 16:02:00,55.1,40.2,29.50,WSW,250,2.0,3.0,57,0.00,,OVC,0.04,60.00,VWS V14.00,2013-02-27 21:02:00,
2013-02-27 16:07:00,55.0,39.2,29.50,WSW,242,2.0,4.0,55,0.00,,OVC,0.04,33.00,VWS V14.00,2013-02-27 21:07:00,
2013-02-27 16:12:00,55.0,40.1,29.50,SW,232,0.0,4.0,57,0.00,,OVC,0.04,32.00,VWS V14.00,2013-02-27 21:12:00,
2013-02-27 16:18:00,54.9,38.1,29.50,WNW,296,0.0,4.0,53,0.00,,OVC,0.04,37.00,VWS V14.00,2013-02-27 21:18:00,
2013-02-27 16:23:00,54.9,38.6,29.50,WNW,294,0.0,4.0,54,0.00,,OVC,0.04,40.00,VWS V14.00,2013-02-27 21:23:00,
2013-02-27 16:28:00,54.9,38.1,29.50,SW,232,0.0,4.0,53,0.00,,OVC,0.04,40.00,VWS V14.00,2013-02-27 21:28:00,
2013-02-27 16:33:00,54.9,38.6,29.50,South,185,0.0,2.0,54,0.00,,OVC,0.04,39.00,VWS V14.00,2013-02-27 21:33:00,
2013-02-27 16:38:00,54.8,38.0,29.51,SSW,202,0.0,2.0,53,0.00,,OVC,0.04,47.00,VWS V14.00,2013-02-27 21:38:00,
2013-02-27 16:43:00,54.8,38.0,29.51,SSW,193,0.0,2.0,53,0.00,,OVC,0.04,51.00,VWS V14.00,2013-02-27 21:43:00,
2013-02-27 16:48:00,54.8,38.0,29.51,WNW,292,0.0,2.0,53,0.00,,OVC,0.04,32.00,VWS V14.00,2013-02-27 21:48:00,
2013-02-27 16:53:00,54.7,38.4,29.51,West,279,0.0,7.0,54,0.00,,OVC,0.04,28.00,VWS V14.00,2013-02-27 21:53:00,
2013-02-27 16:58:00,54.6,38.3,29.51,West,279,0.0,1.0,54,0.00,,OVC,0.04,23.00,VWS V14.00,2013-02-27 21:58:00,
2013-02-27 17:03:00,54.5,38.2,29.52,West,279,0.0,1.0,54,0.00,,OVC,0.04,35.00,VWS V14.00,2013-02-27 22:03:00,
2013-02-27 17:08:00,54.5,38.2,29.52,West,279,0.0,1.0,54,0.00,,OVC,0.04,32.00,VWS V14.00,2013-02-27 22:08:00,
2013-02-27 17:13:00,54.4,38.1,29.52,West,279,0.0,0.0,54,0.00,,OVC,0.04,19.00,VWS V14.00,2013-02-27 22:13:00,
2013-02-27 17:18:00,54.3,38.0,29.52,West,279,0.0,2.0,54,0.00,,OVC,0.04,12.00,VWS V14.00,2013-02-27 22:18:00,
2013-02-27 17:24:00,54.2,37.5,29.52,West,277,0.0,4.0,53,0.00,,OVC,0.04,14.00,VWS V14.00,2013-02-27 22:24:00,
2013-02-27 17:29:00,54.1,37.4,29.53,West,269,0.0,0.0,53,0.00,,OVC,0.04,11.00,VWS V14.00,2013-02-27 22:29:00,
2013-02-27 17:34:00,54.0,36.8,29.53,NNW,335,4.0,6.0,52,0.00,,OVC,0.04,11.00,VWS V14.00,2013-02-27 22:34:00,
2013-02-27 17:39:00,53.8,37.1,29.53,NNW,340,0.0,6.0,53,0.00,,OVC,0.04,11.00,VWS V14.00,2013-02-27 22:39:00,
2013-02-27 17:44:00,53.7,37.0,29.53,WNW,286,0.0,1.0,53,0.00,,OVC,0.04,5.00,VWS V14.00,2013-02-27 22:44:00,
2013-02-27 17:49:00,53.6,36.9,29.53,WSW,244,0.0,2.0,53,0.00,,OVC,0.04,0.00,VWS V14.00,2013-02-27 22:49:00,
2013-02-27 17:54:00,53.5,36.8,29.53,SW,236,0.0,2.0,53,0.00,,OVC,0.04,0.00,VWS V14.00,2013-02-27 22:54:00,
2013-02-27 17:59:00,53.3,36.6,29.54,West,277,0.0,4.0,53,0.00,,OVC,0.04,0.00,VWS V14.00,2013-02-27 22:59:00,
2013-02-27 18:04:00,53.3,37.1,29.54,NW,309,0.0,4.0,54,0.00,,OVC,0.04,0.00,VWS V14.00,2013-02-27 23:04:00,
2013-02-27 18:09:00,53.1,36.9,29.54,NW,309,0.0,4.0,54,0.00,,OVC,0.04,0.00,VWS V14.00,2013-02-27 23:09:00,
2013-02-27 18:14:00,53.0,37.3,29.54,NNW,332,4.0,6.0,55,0.00,,OVC,0.04,0.00,VWS V14.00,2013-02-27 23:14:00,
2013-02-27 18:19:00,52.8,36.6,29.55,NNW,343,4.0,6.0,54,0.00,,OVC,0.04,0.00,VWS V14.00,2013-02-27 23:19:00,
2013-02-27 18:24:00,52.7,36.1,29.55,North,350,0.0,6.0,53,0.00,,OVC,0.04,0.00,VWS V14.00,2013-02-27 23:24:00,
2013-02-27 18:29:00,52.5,36.8,29.55,North,9,0.0,1.0,55,0.00,,OVC,0.04,0.00,VWS V14.00,2013-02-27 23:29:00,
2013-02-27 18:34:00,52.4,36.7,29.55,West,280,0.0,4.0,55,0.00,,OVC,0.04,0.00,VWS V14.00,2013-02-27 23:34:00,
2013-02-27 18:39:00,52.2,37.0,29.56,West,280,0.0,4.0,56,0.00,,OVC,0.04,0.00,VWS V14.00,2013-02-27 23:39:00,
2013-02-27 18:44:00,52.0,36.3,29.56,West,261,0.0,0.0,55,0.00,,OVC,0.04,0.00,VWS V14.00,2013-02-27 23:44:00,
2013-02-27 18:49:00,51.9,35.8,29.56,WSW,251,0.0,4.0,54,0.00,,OVC,0.04,0.00,VWS V14.00,2013-02-27 23:49:00,
2013-02-27 18:54:00,51.8,35.7,29.56,NNW,328,1.0,4.0,54,0.00,,OVC,0.04,0.00,VWS V14.00,2013-02-27 23:54:00,
2013-02-27 19:00:00,51.7,36.1,29.56,North,355,0.0,4.0,55,0.00,,OVC,0.04,0.00,VWS V14.00,2013-02-28 00:00:00,
2013-02-27 19:05:00,51.6,36.4,29.56,NNW,339,0.0,4.0,56,0.00,,OVC,0.04,0.00,VWS V14.00,2013-02-28 00:05:00,
2013-02-27 19:10:00,51.5,36.3,29.56,NNW,339,0.0,4.0,56,0.00,,OVC,0.04,0.00,VWS V14.00,2013-02-28 00:10:00,
2013-02-27 19:15:00,51.3,35.7,29.57,WNW,288,0.0,2.0,55,0.00,,OVC,0.04,0.00,VWS V14.00,2013-02-28 00:15:00,
2013-02-27 19:20:00,51.2,35.6,29.57,SW,222,0.0,2.0,55,0.00,,OVC,0.04,0.00,VWS V14.00,2013-02-28 00:20:00,
2013-02-27 19:25:00,51.1,35.5,29.57,SW,222,0.0,2.0,55,0.00,,OVC,0.04,0.00,VWS V14.00,2013-02-28 00:25:00,
2013-02-27 19:30:00,51.0,35.4,29.56,WNW,300,0.0,4.0,55,0.00,,OVC,0.04,0.00,VWS V14.00,2013-02-28 00:30:00,
2013-02-27 19:35:00,51.0,35.9,29.56,West,267,0.0,4.0,56,0.00,,OVC,0.04,0.00,VWS V14.00,2013-02-28 00:35:00,
2013-02-27 19:40:00,50.9,35.3,29.57,WSW,254,0.0,4.0,55,0.00,,OVC,0.04,0.00,VWS V14.00,2013-02-28 00:40:00,
2013-02-27 19:45:00,50.8,35.7,29.57,WSW,254,1.0,1.0,56,0.00,,OVC,0.04,0.00,VWS V14.00,2013-02-28 00:45:00,
2013-02-27 19:50:00,50.7,35.6,29.57,WSW,254,0.0,1.0,56,0.00,,OVC,0.04,0.00,VWS V14.00,2013-02-28 00:50:00,
2013-02-27 19:55:00,50.6,35.5,29.57,WSW,254,0.0,1.0,56,0.00,,OVC,0.04,0.00,VWS V14.00,2013-02-28 00:55:00,
2013-02-27 20:00:00,50.5,35.4,29.57,WSW,254,0.0,2.0,56,0.00,,OVC,0.04,0.00,VWS V14.00,2013-02-28 01:00:00,
2013-02-27 20:06:00,50.4,35.3,29.57,WSW,254,0.0,2.0,56,0.00,,OVC,0.04,0.00,VWS V14.00,2013-02-28 01:06:00,
2013-02-27 20:11:00,50.3,35.2,29.57,WSW,254,0.0,2.0,56,0.00,,OVC,0.04,0.00,VWS V14.00,2013-02-28 01:11:00,
2013-02-27 20:16:00,50.2,35.1,29.57,WSW,254,0.0,1.0,56,0.00,,OVC,0.04,0.00,VWS V14.00,2013-02-28 01:16:00,
2013-02-27 20:21:00,50.1,35.5,29.57,WSW,254,0.0,1.0,57,0.00,,OVC,0.04,0.00,VWS V14.00,2013-02-28 01:21:00,
2013-02-27 20:26:00,50.0,35.4,29.57,WSW,254,0.0,1.0,57,0.00,,OVC,0.04,0.00,VWS V14.00,2013-02-28 01:26:00,
2013-02-27 20:31:00,49.9,35.3,29.58,WSW,254,1.0,1.0,57,0.00,,OVC,0.04,0.00,VWS V14.00,2013-02-28 01:31:00,
2013-02-27 20:36:00,49.9,35.3,29.58,WSW,254,0.0,1.0,57,0.00,,OVC,0.04,0.00,VWS V14.00,2013-02-28 01:36:00,
2013-02-27 20:41:00,49.8,34.8,29.57,WSW,254,0.0,2.0,56,0.00,,OVC,0.04,0.00,VWS V14.00,2013-02-28 01:41:00,
2013-02-27 20:46:00,49.7,35.1,29.57,WSW,254,0.0,2.0,57,0.00,,OVC,0.04,0.00,VWS V14.00,2013-02-28 01:46:00,
2013-02-27 20:51:00,49.7,35.5,29.58,WSW,254,0.0,2.0,58,0.00,,OVC,0.04,0.00,VWS V14.00,2013-02-28 01:51:00,
2013-02-27 20:56:00,49.6,35.5,29.58,WSW,254,0.0,2.0,58,0.00,,OVC,0.04,0.00,VWS V14.00,2013-02-28 01:56:00,
2013-02-27 21:02:00,49.6,35.5,29.58,WSW,254,0.0,0.0,58,0.00,,OVC,0.04,0.00,VWS V14.00,2013-02-28 02:02:00,
2013-02-27 21:07:00,49.4,34.8,29.57,WSW,254,0.0,0.0,57,0.00,,OVC,0.04,0.00,VWS V14.00,2013-02-28 02:07:00,
2013-02-27 21:12:00,49.4,35.3,29.57,WSW,254,0.0,1.0,58,0.00,,OVC,0.04,0.00,VWS V14.00,2013-02-28 02:12:00,
2013-02-27 21:17:00,49.2,35.1,29.58,WSW,254,0.0,0.0,58,0.00,,OVC,0.04,0.00,VWS V14.00,2013-02-28 02:17:00,
2013-02-27 21:22:00,49.1,35.0,29.58,WSW,254,0.0,0.0,58,0.00,,OVC,0.04,0.00,VWS V14.00,2013-02-28 02:22:00,
2013-02-27 21:27:00,48.9,35.2,29.57,WSW,254,0.0,0.0,59,0.00,,OVC,0.04,0.00,VWS V14.00,2013-02-28 02:27:00,
2013-02-27 21:32:00,48.7,35.0,29.57,WSW,254,0.0,0.0,59,0.00,,OVC,0.04,0.00,VWS V14.00,2013-02-28 02:32:00,
2013-02-27 21:37:00,48.5,34.8,29.57,WSW,254,0.0,0.0,59,0.00,,OVC,0.04,0.00,VWS V14.00,2013-02-28 02:37:00,
2013-02-27 21:42:00,48.5,36.1,29.57,WSW,254,0.0,0.0,62,0.00,,OVC,0.04,0.00,VWS V14.00,2013-02-28 02:42:00,
2013-02-27 21:47:00,48.4,35.6,29.57,WSW,254,0.0,0.0,61,0.00,,OVC,0.04,0.00,VWS V14.00,2013-02-28 02:47:00,
2013-02-27 21:53:00,48.3,35.1,29.56,WSW,254,0.0,0.0,60,0.00,,OVC,0.04,0.00,VWS V14.00,2013-02-28 02:53:00,
2013-02-27 21:58:00,48.2,36.2,29.56,WSW,254,0.0,0.0,63,0.00,,OVC,0.04,0.00,VWS V14.00,2013-02-28 02:58:00,
2013-02-27 22:03:00,48.0,35.6,29.56,WSW,254,0.0,0.0,62,0.00,,OVC,0.04,0.00,VWS V14.00,2013-02-28 03:03:00,
2013-02-27 22:08:00,47.8,35.4,29.56,WSW,254,0.0,0.0,62,0.00,,OVC,0.04,0.00,VWS V14.00,2013-02-28 03:08:00,
2013-02-27 22:13:00,47.4,35.0,29.56,WSW,254,0.0,0.0,62,0.00,,OVC,0.04,0.00,VWS V14.00,2013-02-28 03:13:00,
2013-02-27 22:18:00,47.1,34.4,29.56,WSW,254,0.0,0.0,61,0.00,,OVC,0.04,0.00,VWS V14.00,2013-02-28 03:18:00,
2013-02-27 22:23:00,46.5,34.6,29.56,WSW,254,0.0,1.0,63,0.00,,OVC,0.04,0.00,VWS V14.00,2013-02-28 03:23:00,
2013-02-27 22:28:00,45.8,35.1,29.56,WSW,254,0.0,0.0,66,0.00,,OVC,0.04,0.00,VWS V14.00,2013-02-28 03:28:00,
2013-02-27 22:33:00,45.2,34.9,29.56,WSW,254,0.0,0.0,67,0.00,,OVC,0.04,0.00,VWS V14.00,2013-02-28 03:33:00,
2013-02-27 22:38:00,44.6,34.7,29.56,WSW,254,0.0,0.0,68,0.00,,OVC,0.04,0.00,VWS V14.00,2013-02-28 03:38:00,
2013-02-27 22:43:00,44.2,35.0,29.55,WSW,254,0.0,0.0,70,0.00,,OVC,0.04,0.00,VWS V14.00,2013-02-28 03:43:00,
2013-02-27 22:48:00,44.0,35.6,29.55,WSW,254,0.0,0.0,72,0.00,,OVC,0.04,0.00,VWS V14.00,2013-02-28 03:48:00,
2013-02-27 22:53:00,43.8,35.7,29.55,WSW,254,0.0,0.0,73,0.00,,OVC,0.04,0.00,VWS V14.00,2013-02-28 03:53:00,
2013-02-27 22:58:00,43.6,35.9,29.55,WSW,254,0.0,0.0,74,0.00,,OVC,0.04,0.00,VWS V14.00,2013-02-28 03:58:00,
2013-02-27 23:04:00,43.5,36.1,29.55,WSW,254,0.0,0.0,75,0.00,,OVC,0.04,0.00,VWS V14.00,2013-02-28 04:04:00,
2013-02-27 23:09:00,43.4,36.0,29.55,WSW,254,0.0,0.0,75,0.00,,OVC,0.04,0.00,VWS V14.00,2013-02-28 04:09:00,
2013-02-27 23:14:00,43.3,35.9,29.55,WSW,254,0.0,0.0,75,0.00,,OVC,0.04,0.00,VWS V14.00,2013-02-28 04:14:00,
2013-02-27 23:19:00,43.2,35.8,29.55,WSW,254,0.0,0.0,75,0.00,,OVC,0.04,0.00,VWS V14.00,2013-02-28 04:19:00,
2013-02-27 23:24:00,43.1,35.4,29.54,WSW,254,0.0,0.0,74,0.00,,OVC,0.04,0.00,VWS V14.00,2013-02-28 04:24:00,
2013-02-27 23:29:00,43.1,35.7,29.54,WSW,254,0.0,0.0,75,0.00,,OVC,0.04,0.00,VWS V14.00,2013-02-28 04:29:00,
2013-02-27 23:34:00,42.9,35.2,29.54,WSW,254,0.0,0.0,74,0.00,,OVC,0.04,0.00,VWS V14.00,2013-02-28 04:34:00,
2013-02-27 23:39:00,42.7,35.3,29.54,WSW,254,0.0,0.0,75,0.00,,OVC,0.04,0.00,VWS V14.00,2013-02-28 04:39:00,
2013-02-27 23:44:00,42.5,35.5,29.54,WSW,254,0.0,0.0,76,0.00,,OVC,0.04,0.00,VWS V14.00,2013-02-28 04:44:00,
2013-02-27 23:49:00,42.3,35.3,29.53,WSW,254,0.0,0.0,76,0.00,,OVC,0.04,0.00,VWS V14.00,2013-02-28 04:49:00,
2013-02-27 23:54:00,42.1,35.8,29.53,WSW,254,0.0,0.0,78,0.00,,OVC,0.04,0.00,VWS V14.00,2013-02-28 04:54:00,
2013-02-27 23:59:00,41.9,35.9,29.53,WSW,254,0.0,0.0,79,0.00,,OVC,0.00,0.00,VWS V14.00,2013-02-28 04:59:00,